Time;durP1;ratioP1;P1;durP2;ratioP2;P2;SDS_P1;SDS_P2;PMS_P1;PMS_P2;Temp;Humidity;BMP_temperature;BMP_pressure;BME280_temperature;BME280_humidity;BME280_pressure;Samples;Min_cycle;Max_cycle;Signal;HPM_P1;HPM_P2
2021/01/16 00:00:39;;;;;;;3.80;3.35;;;19.70;44.10;;;;;;5026582;28;20022;-64
2021/01/16 00:03:15;;;;;;;4.68;3.08;;;19.70;44.10;;;;;;5026487;28;20029;-65
2021/01/16 00:05:40;;;;;;;5.15;3.00;;;19.70;44.30;;;;;;5008572;28;20037;-65
2021/01/16 00:08:07;;;;;;;5.30;3.78;;;19.70;44.10;;;;;;5026653;28;20097;-65
2021/01/16 00:10:33;;;;;;;4.68;3.28;;;19.70;44.10;;;;;;5026335;28;20407;-64
2021/01/16 00:12:58;;;;;;;4.63;2.95;;;19.60;44.10;;;;;;5022116;28;20489;-62
2021/01/16 00:15:24;;;;;;;3.38;2.80;;;19.60;44.10;;;;;;4973100;28;20037;-62
2021/01/16 00:17:58;;;;;;;5.20;3.22;;;19.60;44.00;;;;;;4989457;28;20018;-64
2021/01/16 00:20:24;;;;;;;5.60;2.80;;;19.60;44.10;;;;;;5006894;28;20030;-66
2021/01/16 00:22:50;;;;;;;6.43;2.72;;;19.60;44.00;;;;;;5006476;28;20049;-66
2021/01/16 00:25:16;;;;;;;5.28;2.72;;;19.60;44.00;;;;;;4988965;28;20373;-65
2021/01/16 00:27:42;;;;;;;3.30;2.25;;;19.60;44.00;;;;;;5007259;28;20083;-64
2021/01/16 00:30:08;;;;;;;3.65;2.75;;;19.50;44.00;;;;;;5006587;28;20449;-62
2021/01/16 00:32:35;;;;;;;3.45;2.72;;;19.60;44.00;;;;;;4989300;28;20029;-65
2021/01/16 00:35:03;;;;;;;2.90;2.60;;;19.50;43.90;;;;;;5006435;28;20753;-65
2021/01/16 00:37:28;;;;;;;3.05;2.40;;;19.50;44.00;;;;;;5006203;28;20719;-63
2021/01/16 00:39:54;;;;;;;3.88;2.67;;;19.50;44.00;;;;;;5005783;28;20026;-64
2021/01/16 00:42:19;;;;;;;3.00;2.60;;;19.50;44.00;;;;;;5006517;28;20034;-65
2021/01/16 00:44:45;;;;;;;5.72;3.08;;;19.50;44.00;;;;;;4989011;28;20033;-65
2021/01/16 00:47:10;;;;;;;2.70;2.25;;;19.50;44.00;;;;;;5006295;28;20038;-62
2021/01/16 00:49:36;;;;;;;4.00;2.40;;;19.40;44.00;;;;;;5006383;28;20623;-64
2021/01/16 00:52:01;;;;;;;2.97;2.55;;;19.40;44.00;;;;;;5006179;28;20044;-63
2021/01/16 00:54:27;;;;;;;2.95;2.65;;;19.40;44.00;;;;;;5005962;28;20022;-65
2021/01/16 00:56:52;;;;;;;3.63;2.60;;;19.40;43.90;;;;;;5006030;28;20613;-64
2021/01/16 00:59:18;;;;;;;3.70;1.98;;;19.30;43.90;;;;;;5005725;28;20038;-62
2021/01/16 01:01:43;;;;;;;2.67;2.20;;;19.40;44.00;;;;;;5006153;28;20036;-65
2021/01/16 01:04:09;;;;;;;2.58;2.10;;;19.30;43.90;;;;;;5006186;28;20518;-64
2021/01/16 01:06:34;;;;;;;2.45;2.17;;;19.30;43.90;;;;;;4988944;28;20029;-63
2021/01/16 01:09:00;;;;;;;3.13;2.08;;;19.30;43.80;;;;;;5005428;28;20115;-65
2021/01/16 01:11:25;;;;;;;2.35;2.00;;;19.30;43.90;;;;;;5005547;28;21062;-62
2021/01/16 01:13:51;;;;;;;2.72;2.20;;;19.30;44.00;;;;;;5005776;28;20037;-65
2021/01/16 01:16:16;;;;;;;3.67;2.70;;;19.30;44.50;;;;;;5005746;28;20038;-65
2021/01/16 01:18:42;;;;;;;2.85;2.05;;;19.30;43.90;;;;;;4988284;28;20030;-63
2021/01/16 01:21:07;;;;;;;3.25;1.63;;;19.20;43.90;;;;;;5005603;28;20385;-63
2021/01/16 01:23:33;;;;;;;4.80;2.50;;;19.20;43.90;;;;;;5006004;28;20072;-64
2021/01/16 01:25:58;;;;;;;3.10;2.22;;;19.20;43.80;;;;;;5005384;28;20034;-63
2021/01/16 01:28:24;;;;;;;2.38;1.92;;;19.20;43.80;;;;;;5005617;28;20037;-63
2021/01/16 01:30:49;;;;;;;2.10;1.90;;;19.20;43.80;;;;;;5005619;28;20540;-63
2021/01/16 01:33:15;;;;;;;2.30;1.83;;;19.20;43.90;;;;;;5005787;28;20033;-64
2021/01/16 01:35:40;;;;;;;3.13;2.10;;;19.20;43.80;;;;;;5005379;28;20034;-62
2021/01/16 01:38:06;;;;;;;2.28;2.08;;;19.20;43.80;;;;;;5005796;28;20036;-62
2021/01/16 01:40:31;;;;;;;3.78;2.05;;;19.20;43.80;;;;;;4988159;28;20034;-65
2021/01/16 01:42:57;;;;;;;2.20;2.00;;;19.20;43.80;;;;;;5005211;28;20026;-65
2021/01/16 01:45:23;;;;;;;2.55;2.35;;;19.20;43.80;;;;;;5005640;28;20546;-63
2021/01/16 01:47:49;;;;;;;1.73;1.63;;;19.20;43.70;;;;;;5005482;28;20042;-65
2021/01/16 01:50:15;;;;;;;2.10;1.80;;;19.10;43.60;;;;;;4987680;28;20057;-64
2021/01/16 01:52:41;;;;;;;1.98;1.73;;;19.10;43.60;;;;;;5003927;28;20045;-62
2021/01/16 01:55:10;;;;;;;1.92;1.67;;;19.10;43.60;;;;;;5005969;28;20022;-65
2021/01/16 01:57:37;;;;;;;2.92;2.17;;;19.10;43.60;;;;;;5004589;28;20806;-65
2021/01/16 02:00:07;;;;;;;2.53;1.83;;;19.10;44.30;;;;;;5004887;28;20101;-62
2021/01/16 02:02:35;;;;;;;3.35;2.08;;;19.10;43.70;;;;;;5005036;28;20104;-65
2021/01/16 02:05:02;;;;;;;1.85;1.70;;;19.10;43.60;;;;;;4987662;28;20033;-64
2021/01/16 02:07:39;;;;;;;2.03;1.77;;;19.10;43.60;;;;;;5004500;28;20034;-64
2021/01/16 02:10:09;;;;;;;3.08;1.80;;;19.10;43.70;;;;;;5004736;28;20084;-63
2021/01/16 02:12:34;;;;;;;3.22;1.63;;;19.10;43.70;;;;;;5004781;28;20034;-65
2021/01/16 02:15:24;;;;;;;2.17;1.90;;;19.00;43.70;;;;;;4987311;28;20107;-64
2021/01/16 02:17:54;;;;;;;2.92;1.95;;;19.00;43.70;;;;;;5019849;28;20030;-64
2021/01/16 02:20:26;;;;;;;2.20;1.33;;;19.00;43.80;;;;;;5004253;28;20034;-64
2021/01/16 02:23:06;;;;;;;2.40;1.77;;;19.00;43.80;;;;;;4987161;28;20101;-65
2021/01/16 02:25:35;;;;;;;1.73;1.63;;;18.90;43.80;;;;;;5004919;28;20037;-65
2021/01/16 02:28:05;;;;;;;1.50;1.40;;;18.90;43.80;;;;;;5004510;28;20046;-63
2021/01/16 02:30:33;;;;;;;1.67;1.50;;;18.80;43.80;;;;;;5004473;28;20112;-65
2021/01/16 02:32:58;;;;;;;2.45;2.05;;;18.80;43.80;;;;;;5003415;28;20057;-65
2021/01/16 02:35:24;;;;;;;2.20;1.75;;;18.80;43.70;;;;;;5003367;28;20097;-63
2021/01/16 02:38:07;;;;;;;3.92;2.03;;;18.80;43.80;;;;;;4987169;28;20053;-65
2021/01/16 02:40:50;;;;;;;1.85;1.60;;;18.70;43.80;;;;;;4987124;28;23699;-65
2021/01/16 02:43:34;;;;;;;1.70;1.60;;;18.70;43.70;;;;;;4986544;28;22135;-65
2021/01/16 02:46:02;;;;;;;1.50;1.40;;;18.80;43.80;;;;;;4986719;28;20461;-63
2021/01/16 02:48:42;;;;;;;1.52;1.25;;;18.70;43.80;;;;;;5004497;28;20562;-65
2021/01/16 02:51:08;;;;;;;1.95;1.55;;;18.70;43.80;;;;;;4986551;28;20128;-64
2021/01/16 02:53:35;;;;;;;1.92;1.50;;;18.70;43.80;;;;;;5003476;28;20046;-64
2021/01/16 02:56:09;;;;;;;1.95;1.60;;;18.80;43.90;;;;;;4987100;28;20606;-65
2021/01/16 02:58:35;;;;;;;2.07;1.50;;;18.70;43.80;;;;;;4987288;28;20574;-64
2021/01/16 03:01:00;;;;;;;2.30;1.85;;;18.80;43.80;;;;;;5003982;28;20025;-65
2021/01/16 03:03:27;;;;;;;2.53;1.95;;;18.80;43.80;;;;;;5005559;28;20030;-63
2021/01/16 03:05:52;;;;;;;2.35;1.38;;;18.80;43.90;;;;;;5007296;28;20026;-62
2021/01/16 03:08:18;;;;;;;1.92;1.63;;;18.80;43.90;;;;;;5008188;28;20034;-63
2021/01/16 03:10:43;;;;;;;1.52;1.40;;;18.90;44.00;;;;;;5007679;28;20018;-63
2021/01/16 03:13:09;;;;;;;2.25;1.65;;;18.90;44.00;;;;;;5008176;28;20030;-65
2021/01/16 03:15:34;;;;;;;1.67;1.58;;;18.90;43.90;;;;;;4990763;28;20114;-65
2021/01/16 03:18:00;;;;;;;3.03;1.63;;;18.90;44.00;;;;;;4990228;28;20026;-64
2021/01/16 03:20:30;;;;;;;2.33;1.40;;;19.00;44.00;;;;;;5008079;28;20407;-64
2021/01/16 03:22:57;;;;;;;1.50;1.40;;;19.00;43.90;;;;;;5007701;28;20034;-65
2021/01/16 03:25:24;;;;;;;1.27;1.15;;;19.10;43.90;;;;;;4990438;28;20030;-63
2021/01/16 03:27:49;;;;;;;2.35;1.40;;;19.10;43.80;;;;;;5007749;28;20041;-65
2021/01/16 03:30:16;;;;;;;2.53;1.42;;;19.20;43.80;;;;;;5008391;28;20034;-65
2021/01/16 03:32:42;;;;;;;2.25;1.38;;;19.20;43.80;;;;;;5007256;28;20514;-65
2021/01/16 03:35:08;;;;;;;1.83;1.27;;;19.30;43.80;;;;;;5007554;28;20038;-63
2021/01/16 03:37:33;;;;;;;2.15;1.40;;;19.30;43.70;;;;;;5007377;28;20087;-65
2021/01/16 03:39:59;;;;;;;1.75;1.20;;;19.30;43.60;;;;;;5007796;28;20041;-65
2021/01/16 03:42:24;;;;;;;1.45;1.35;;;19.40;43.60;;;;;;4990046;28;20558;-62
2021/01/16 03:44:50;;;;;;;1.50;1.30;;;19.40;43.50;;;;;;4989883;28;20492;-65
2021/01/16 03:47:15;;;;;;;1.65;1.40;;;19.40;43.40;;;;;;5007438;28;20045;-64
2021/01/16 03:49:41;;;;;;;2.00;1.08;;;19.50;43.40;;;;;;5007599;28;20026;-65
2021/01/16 03:52:06;;;;;;;1.63;1.10;;;19.50;43.40;;;;;;5007024;28;20562;-63
2021/01/16 03:54:32;;;;;;;1.33;1.20;;;19.50;43.30;;;;;;4990205;28;20080;-65
2021/01/16 03:56:58;;;;;;;2.38;1.83;;;19.50;43.20;;;;;;4989705;28;20562;-65
2021/01/16 03:59:23;;;;;;;1.98;1.20;;;19.60;43.20;;;;;;5007223;28;20752;-61
2021/01/16 04:01:49;;;;;;;1.80;1.40;;;19.60;43.10;;;;;;5007158;28;20041;-65
2021/01/16 04:04:14;;;;;;;1.48;1.20;;;19.60;43.10;;;;;;4989282;28;20413;-65
2021/01/16 04:06:40;;;;;;;1.40;1.30;;;19.60;42.90;;;;;;5007267;28;20077;-65
2021/01/16 04:09:05;;;;;;;1.75;1.40;;;19.60;42.90;;;;;;5007215;28;20408;-64
2021/01/16 04:11:31;;;;;;;1.73;1.60;;;19.60;42.90;;;;;;5006907;28;20045;-64
2021/01/16 04:13:56;;;;;;;2.03;1.40;;;19.50;42.70;;;;;;5006883;28;20034;-65
2021/01/16 04:16:24;;;;;;;1.30;1.08;;;19.50;42.70;;;;;;5005624;28;20396;-65
2021/01/16 04:18:50;;;;;;;1.50;1.40;;;19.50;42.60;;;;;;4990290;28;20034;-64
2021/01/16 04:21:15;;;;;;;2.10;1.10;;;19.50;42.60;;;;;;4979300;28;20033;-65
2021/01/16 04:23:41;;;;;;;1.10;1.00;;;19.40;42.50;;;;;;5007177;28;20675;-63
2021/01/16 04:26:06;;;;;;;1.77;1.30;;;19.40;42.50;;;;;;5006855;28;20037;-65
2021/01/16 04:28:32;;;;;;;2.35;1.60;;;19.40;42.50;;;;;;5007031;28;20029;-64
2021/01/16 04:30:57;;;;;;;1.02;0.98;;;19.40;42.50;;;;;;5005973;28;20385;-65
2021/01/16 04:33:23;;;;;;;1.33;1.20;;;19.40;42.50;;;;;;5006710;28;20061;-65
2021/01/16 04:35:48;;;;;;;1.27;1.08;;;19.40;42.50;;;;;;5006856;28;20121;-64
2021/01/16 04:38:14;;;;;;;1.20;1.10;;;19.30;42.50;;;;;;5006476;28;20416;-64
2021/01/16 04:40:39;;;;;;;3.13;1.20;;;19.30;42.50;;;;;;4989033;28;20030;-64
2021/01/16 04:43:05;;;;;;;1.15;0.95;;;19.30;42.50;;;;;;5005996;28;20107;-65
2021/01/16 04:45:31;;;;;;;1.00;0.88;;;19.20;42.50;;;;;;4971896;28;20022;-61
2021/01/16 04:47:58;;;;;;;1.45;1.00;;;19.20;42.50;;;;;;5006104;28;20034;-64
2021/01/16 04:50:29;;;;;;;1.70;1.27;;;19.20;42.50;;;;;;4988298;28;20041;-62
2021/01/16 04:53:08;;;;;;;1.10;1.00;;;19.20;42.50;;;;;;5006041;28;20518;-64
2021/01/16 04:55:36;;;;;;;1.30;1.20;;;19.20;42.60;;;;;;5006187;28;20113;-65
2021/01/16 04:58:09;;;;;;;2.20;1.00;;;19.10;42.50;;;;;;5005994;28;20026;-63
2021/01/16 05:00:41;;;;;;;1.40;1.17;;;19.10;42.50;;;;;;5006093;28;20116;-65
2021/01/16 05:03:11;;;;;;;1.27;1.13;;;19.10;42.50;;;;;;5006158;28;20037;-64
2021/01/16 05:05:39;;;;;;;1.52;1.17;;;19.10;42.60;;;;;;5006218;28;20026;-64
2021/01/16 05:08:04;;;;;;;1.92;1.10;;;19.00;42.50;;;;;;5005359;28;20033;-63
2021/01/16 05:10:38;;;;;;;1.42;1.10;;;19.00;42.60;;;;;;4989155;28;20045;-63
2021/01/16 05:13:04;;;;;;;1.85;1.10;;;19.00;42.60;;;;;;4989141;28;20040;-64
2021/01/16 05:15:30;;;;;;;1.20;0.95;;;19.00;42.60;;;;;;4988496;28;20037;-63
2021/01/16 05:18:06;;;;;;;1.30;1.10;;;19.00;42.70;;;;;;4988336;28;20030;-65
2021/01/16 05:20:32;;;;;;;1.60;1.40;;;18.90;42.70;;;;;;4989683;28;20037;-63
2021/01/16 05:23:15;;;;;;;1.20;1.02;;;18.90;42.70;;;;;;4988243;28;20071;-64
2021/01/16 05:25:40;;;;;;;1.63;1.00;;;18.90;42.80;;;;;;5005701;28;20034;-63
2021/01/16 05:28:06;;;;;;;1.20;1.10;;;18.90;42.80;;;;;;5005459;28;20049;-63
2021/01/16 05:30:31;;;;;;;1.10;1.00;;;18.90;42.90;;;;;;5005832;28;20034;-65
2021/01/16 05:33:08;;;;;;;1.15;1.05;;;18.80;42.90;;;;;;5005467;28;20030;-66
2021/01/16 05:35:33;;;;;;;0.98;0.90;;;18.80;43.00;;;;;;4988244;28;20112;-64
2021/01/16 05:37:58;;;;;;;1.27;1.05;;;18.80;43.00;;;;;;4987815;28;20026;-64
2021/01/16 05:40:24;;;;;;;1.55;1.20;;;18.80;43.00;;;;;;4988404;28;20022;-63
2021/01/16 05:42:50;;;;;;;1.17;0.85;;;18.80;43.10;;;;;;5004596;28;20523;-65
2021/01/16 05:45:15;;;;;;;1.25;1.00;;;18.80;43.10;;;;;;5004970;28;20076;-65
2021/01/16 05:47:42;;;;;;;1.63;1.27;;;18.80;43.10;;;;;;5003948;28;20121;-64
2021/01/16 05:50:09;;;;;;;1.95;0.90;;;18.80;43.10;;;;;;5005334;28;20034;-65
2021/01/16 05:52:41;;;;;;;1.67;1.20;;;18.80;43.10;;;;;;5005480;28;20038;-65
2021/01/16 05:55:07;;;;;;;1.20;1.10;;;18.70;43.10;;;;;;4988582;28;20041;-64
2021/01/16 05:57:33;;;;;;;1.20;1.10;;;18.70;43.10;;;;;;5005321;28;20026;-63
2021/01/16 05:59:59;;;;;;;1.52;1.00;;;18.70;43.00;;;;;;5005233;28;20034;-64
2021/01/16 06:02:30;;;;;;;1.95;1.33;;;18.70;43.10;;;;;;5005613;28;20037;-65
2021/01/16 06:04:56;;;;;;;1.98;1.10;;;18.70;43.10;;;;;;5005311;28;20018;-65
2021/01/16 06:07:22;;;;;;;1.83;0.90;;;18.70;43.10;;;;;;5005434;28;20028;-64
2021/01/16 06:09:49;;;;;;;1.55;1.40;;;18.70;43.00;;;;;;5004961;28;20639;-64
2021/01/16 06:12:15;;;;;;;1.80;0.82;;;18.80;43.10;;;;;;5004842;28;20037;-64
2021/01/16 06:14:42;;;;;;;1.27;0.88;;;18.80;43.70;;;;;;5003968;28;20064;-64
2021/01/16 06:17:07;;;;;;;0.95;0.90;;;18.80;43.10;;;;;;5004960;28;20038;-63
2021/01/16 06:19:33;;;;;;;2.22;1.08;;;18.80;43.10;;;;;;5003837;28;20022;-65
2021/01/16 06:21:58;;;;;;;1.30;1.20;;;18.80;43.10;;;;;;5005132;28;20026;-64
2021/01/16 06:24:24;;;;;;;0.90;0.90;;;18.80;43.20;;;;;;4987039;28;20041;-63
2021/01/16 06:26:57;;;;;;;1.33;1.00;;;18.80;43.20;;;;;;5003989;28;20117;-65
2021/01/16 06:29:30;;;;;;;1.20;1.10;;;18.80;43.20;;;;;;4987769;28;20036;-64
2021/01/16 06:32:09;;;;;;;1.33;1.10;;;18.70;43.20;;;;;;4987008;28;20628;-66
2021/01/16 06:34:39;;;;;;;1.75;1.30;;;18.80;43.20;;;;;;4987804;28;20088;-65
2021/01/16 06:37:14;;;;;;;1.65;1.00;;;18.80;43.20;;;;;;5004698;28;20064;-64
2021/01/16 06:39:40;;;;;;;;;;;18.80;43.20;;;;;;5011382;28;20029;-65
2021/01/16 06:42:10;;;;;;;1.20;1.10;;;18.80;43.20;;;;;;5011425;28;19941;-62
2021/01/16 06:44:36;;;;;;;1.00;0.90;;;18.80;43.20;;;;;;5011425;28;20029;-65
2021/01/16 06:47:01;;;;;;;1.17;1.08;;;18.80;43.20;;;;;;5010905;28;20026;-66
2021/01/16 06:49:28;;;;;;;1.38;1.10;;;18.80;43.20;;;;;;5011582;28;20038;-63
2021/01/16 06:51:55;;;;;;;2.10;1.00;;;18.90;43.30;;;;;;5010842;28;20049;-65
2021/01/16 06:54:24;;;;;;;1.25;1.13;;;18.90;43.20;;;;;;5011013;28;20034;-65
2021/01/16 06:57:09;;;;;;;1.35;1.00;;;18.80;43.20;;;;;;5011032;28;20022;-63
2021/01/16 06:59:36;;;;;;;1.73;1.20;;;18.90;43.20;;;;;;4994695;28;20496;-64
2021/01/16 07:02:31;;;;;;;1.58;1.10;;;18.90;43.20;;;;;;5011555;28;20030;-64
2021/01/16 07:04:59;;;;;;;1.40;0.98;;;18.90;43.20;;;;;;5011429;28;20123;-65
2021/01/16 07:07:31;;;;;;;1.13;1.00;;;18.90;43.20;;;;;;5010910;28;20054;-65
2021/01/16 07:09:59;;;;;;;1.33;1.00;;;18.90;43.10;;;;;;5010880;28;20048;-65
2021/01/16 07:12:25;;;;;;;1.13;1.00;;;18.90;43.10;;;;;;5010754;28;20034;-65
2021/01/16 07:14:50;;;;;;;1.48;1.20;;;18.90;43.10;;;;;;5010750;28;20045;-65
2021/01/16 07:17:17;;;;;;;1.75;1.20;;;18.90;43.10;;;;;;5010804;28;20108;-64
2021/01/16 07:19:43;;;;;;;1.63;0.88;;;18.90;43.00;;;;;;4993315;28;20508;-65
2021/01/16 07:22:09;;;;;;;1.50;1.10;;;18.90;43.00;;;;;;5010450;28;20041;-62
2021/01/16 07:24:35;;;;;;;1.48;1.27;;;18.90;42.90;;;;;;4976909;28;20085;-66
2021/01/16 07:27:00;;;;;;;1.30;1.00;;;18.90;42.90;;;;;;5010877;28;20022;-65
2021/01/16 07:29:25;;;;;;;1.20;1.10;;;18.90;42.80;;;;;;5009581;28;20061;-64
2021/01/16 07:31:51;;;;;;;1.23;1.02;;;18.90;42.80;;;;;;5010561;28;20431;-65
2021/01/16 07:34:16;;;;;;;1.77;1.45;;;18.90;42.70;;;;;;4993324;28;20034;-65
2021/01/16 07:36:42;;;;;;;1.65;1.10;;;18.90;42.60;;;;;;5009274;28;20021;-64
2021/01/16 07:39:09;;;;;;;1.48;1.15;;;18.90;42.60;;;;;;4992964;28;20030;-65
2021/01/16 07:41:35;;;;;;;1.25;1.08;;;18.90;42.50;;;;;;4993376;28;20692;-65
2021/01/16 07:44:10;;;;;;;1.33;1.20;;;18.90;42.50;;;;;;5010275;28;20690;-65
2021/01/16 07:46:37;;;;;;;1.58;1.38;;;18.90;42.50;;;;;;5010562;28;20522;-66
2021/01/16 07:49:07;;;;;;;1.60;1.38;;;18.90;42.40;;;;;;5010356;28;20037;-65
2021/01/16 07:51:36;;;;;;;1.45;1.13;;;18.90;42.50;;;;;;5006932;28;20051;-65
2021/01/16 07:54:05;;;;;;;1.95;1.33;;;18.90;42.40;;;;;;4992130;28;20040;-64
2021/01/16 07:56:35;;;;;;;1.77;1.33;;;18.90;42.50;;;;;;5006940;28;20042;-62
2021/01/16 07:59:02;;;;;;;1.33;1.10;;;18.90;42.50;;;;;;4989954;28;20037;-64
2021/01/16 08:01:39;;;;;;;1.20;1.00;;;18.90;42.60;;;;;;5007243;28;20037;-66
2021/01/16 08:04:27;;;;;;;2.50;1.33;;;18.90;42.70;;;;;;4990812;28;20065;-65
2021/01/16 08:07:06;;;;;;;1.52;1.30;;;18.90;42.80;;;;;;5021976;28;20034;-66
2021/01/16 08:09:52;;;;;;;3.10;1.20;;;18.90;42.80;;;;;;5007068;28;20129;-66
2021/01/16 08:12:19;;;;;;;3.55;1.30;;;18.90;42.80;;;;;;5006928;28;20042;-65
2021/01/16 08:14:45;;;;;;;3.42;1.90;;;18.90;42.90;;;;;;5007152;28;20030;-63
2021/01/16 08:17:21;;;;;;;4.70;1.40;;;18.90;42.90;;;;;;5007038;28;20606;-67
2021/01/16 08:19:46;;;;;;;4.38;1.58;;;18.90;42.90;;;;;;4989316;28;20065;-63
2021/01/16 08:22:18;;;;;;;4.82;2.13;;;18.90;42.90;;;;;;5006996;28;20061;-63
2021/01/16 08:24:55;;;;;;;4.45;1.48;;;18.90;42.90;;;;;;5006622;28;20049;-65
2021/01/16 08:27:23;;;;;;;4.93;1.45;;;18.90;43.00;;;;;;5006425;28;20107;-63
2021/01/16 08:29:48;;;;;;;9.05;1.77;;;18.90;43.00;;;;;;5006609;28;20030;-64
2021/01/16 08:32:14;;;;;;;2.45;1.23;;;18.90;43.00;;;;;;5006379;28;20092;-65
2021/01/16 08:34:56;;;;;;;4.07;1.60;;;18.90;43.10;;;;;;5006586;28;20030;-67
2021/01/16 08:37:31;;;;;;;4.38;1.58;;;18.90;43.00;;;;;;5006086;28;20041;-64
2021/01/16 08:39:58;;;;;;;3.95;1.58;;;18.90;43.10;;;;;;4989084;28;20061;-64
2021/01/16 08:42:28;;;;;;;2.67;1.80;;;18.90;43.10;;;;;;4988949;28;20058;-65
2021/01/16 08:44:55;;;;;;;4.18;1.55;;;18.90;43.20;;;;;;5006482;28;20057;-62
2021/01/16 08:47:20;;;;;;;2.13;1.80;;;18.90;43.20;;;;;;5005985;28;20034;-64
2021/01/16 08:49:46;;;;;;;4.22;1.30;;;18.90;43.20;;;;;;4988486;28;20044;-62
2021/01/16 08:52:12;;;;;;;4.97;1.58;;;18.90;43.20;;;;;;5006393;28;20076;-61
2021/01/16 08:54:37;;;;;;;2.17;1.40;;;18.90;43.20;;;;;;5006874;28;20026;-64
2021/01/16 08:57:05;;;;;;;5.40;1.60;;;18.90;43.20;;;;;;5006117;28;20587;-64
2021/01/16 08:59:32;;;;;;;3.08;1.42;;;18.90;43.30;;;;;;5006204;28;20113;-64
2021/01/16 09:02:23;;;;;;;1.75;1.38;;;18.90;43.20;;;;;;4987729;28;20026;-64
2021/01/16 09:04:49;;;;;;;3.67;1.45;;;18.90;43.20;;;;;;5001393;28;20594;-64
2021/01/16 09:07:22;;;;;;;7.30;1.60;;;18.90;43.20;;;;;;5006020;28;20480;-62
2021/01/16 09:10:06;;;;;;;2.97;1.70;;;18.90;43.20;;;;;;5005914;28;20026;-63
2021/01/16 09:12:39;;;;;;;1.95;1.75;;;18.90;43.20;;;;;;5005726;28;20750;-64
2021/01/16 09:15:26;;;;;;;3.25;1.50;;;18.90;43.20;;;;;;5005740;28;20400;-62
2021/01/16 09:18:11;;;;;;;11.50;4.40;;;19.00;43.10;;;;;;4987710;28;20447;-64
2021/01/16 09:20:44;;;;;;;15.80;8.70;;;19.00;43.10;;;;;;5005785;28;20522;-64
2021/01/16 09:23:23;;;;;;;25.42;12.40;;;19.00;43.10;;;;;;5005248;28;20034;-63
2021/01/16 09:25:49;;;;;;;28.65;14.15;;;19.10;43.10;;;;;;5005717;28;20164;-64
2021/01/16 09:28:14;;;;;;;29.48;13.95;;;19.10;43.00;;;;;;5005654;28;20037;-65
2021/01/16 09:30:40;;;;;;;24.52;13.18;;;19.10;43.10;;;;;;4988714;28;20029;-64
2021/01/16 09:33:24;;;;;;;27.05;13.45;;;19.00;43.00;;;;;;4987980;28;20029;-63
2021/01/16 09:35:50;;;;;;;26.00;13.00;;;19.00;43.10;;;;;;4986797;28;21686;-63
2021/01/16 09:38:21;;;;;;;24.38;12.82;;;19.00;43.00;;;;;;5005308;28;20041;-63
2021/01/16 09:40:48;;;;;;;27.92;12.93;;;18.90;43.00;;;;;;4971387;28;20037;-64
2021/01/16 09:43:26;;;;;;;25.95;13.23;;;18.90;43.00;;;;;;4988673;28;20507;-64
2021/01/16 09:46:01;;;;;;;22.40;12.10;;;18.90;43.00;;;;;;5005136;28;20121;-64
2021/01/16 09:48:42;;;;;;;19.88;11.48;;;18.90;43.10;;;;;;4988297;28;20030;-63
2021/01/16 09:51:10;;;;;;;21.70;10.40;;;18.90;43.70;;;;;;5006568;28;20678;-63
2021/01/16 09:53:36;;;;;;;19.35;10.77;;;18.90;43.10;;;;;;5005256;28;20092;-63
2021/01/16 09:56:01;;;;;;;19.27;11.27;;;18.80;43.10;;;;;;5005412;28;20025;-64
2021/01/16 09:58:38;;;;;;;18.23;11.05;;;18.80;43.70;;;;;;5005315;28;20015;-62
2021/01/16 10:01:13;;;;;;;18.83;9.85;;;18.80;43.10;;;;;;4987652;28;20106;-63
2021/01/16 10:03:38;;;;;;;19.05;10.95;;;18.80;43.20;;;;;;5004794;28;20030;-63
2021/01/16 10:06:05;;;;;;;16.90;9.40;;;18.80;43.20;;;;;;4971799;28;20022;-64
2021/01/16 10:08:33;;;;;;;15.45;9.32;;;18.80;43.20;;;;;;5005206;28;20044;-64
2021/01/16 10:10:59;;;;;;;14.38;9.05;;;18.80;43.30;;;;;;4987529;28;20038;-64
2021/01/16 10:13:34;;;;;;;19.35;9.10;;;18.80;43.30;;;;;;4986951;28;20799;-65
2021/01/16 10:16:01;;;;;;;15.70;8.98;;;18.90;43.40;;;;;;4987485;28;20176;-64
2021/01/16 10:18:29;;;;;;;13.75;8.23;;;18.90;43.40;;;;;;4987517;28;20168;-64
2021/01/16 10:21:00;;;;;;;17.23;8.77;;;18.90;43.30;;;;;;5004935;28;20048;-66
2021/01/16 10:23:27;;;;;;;12.60;7.65;;;18.90;43.40;;;;;;5011023;28;20033;-64
2021/01/16 10:25:58;;;;;;;12.50;8.50;;;19.00;43.40;;;;;;5023180;28;20060;-64
2021/01/16 10:28:33;;;;;;;13.32;8.13;;;19.00;43.30;;;;;;4990808;28;20017;-65
2021/01/16 10:31:09;;;;;;;10.82;7.57;;;19.00;43.40;;;;;;5007152;28;20028;-64
2021/01/16 10:33:36;;;;;;;13.50;7.50;;;19.00;43.40;;;;;;5023422;28;20029;-64
2021/01/16 10:36:09;;;;;;;12.45;6.55;;;19.00;43.50;;;;;;5024622;28;20029;-63
2021/01/16 10:38:44;;;;;;;12.60;6.82;;;19.00;43.60;;;;;;5025323;28;20079;-64
2021/01/16 10:41:10;;;;;;;11.73;6.60;;;19.00;43.70;;;;;;5024930;28;20799;-64
2021/01/16 10:43:36;;;;;;;8.80;5.85;;;19.00;43.80;;;;;;5024825;28;20034;-63
2021/01/16 10:46:30;;;;;;;11.55;6.28;;;19.00;43.90;;;;;;5023142;28;20021;-65
2021/01/16 10:49:18;;;;;;;12.52;6.00;;;19.00;43.90;;;;;;5024540;28;20116;-64
2021/01/16 10:51:51;;;;;;;10.07;5.63;;;18.90;43.90;;;;;;5024634;28;20041;-64
2021/01/16 10:54:18;;;;;;;8.70;6.07;;;18.90;44.00;;;;;;5007621;28;20040;-62
2021/01/16 10:56:45;;;;;;;13.13;6.10;;;18.90;44.10;;;;;;5024721;28;20116;-63
2021/01/16 10:59:11;;;;;;;8.70;4.70;;;18.90;44.10;;;;;;4998413;28;20037;-65
2021/01/16 11:01:48;;;;;;;10.85;5.55;;;18.90;44.20;;;;;;5024476;28;20091;-62
2021/01/16 11:04:19;;;;;;;8.35;4.97;;;18.90;44.30;;;;;;5013280;28;20072;-65
2021/01/16 11:06:49;;;;;;;9.05;5.10;;;18.80;44.20;;;;;;5023021;28;20076;-64
2021/01/16 11:09:35;;;;;;;10.20;5.20;;;18.80;44.20;;;;;;5024764;28;20045;-65
2021/01/16 11:12:01;;;;;;;8.20;5.13;;;18.80;44.20;;;;;;5024278;28;20041;-65
2021/01/16 11:14:45;;;;;;;10.48;4.75;;;18.80;44.20;;;;;;5007614;28;20036;-64
2021/01/16 11:17:11;;;;;;;6.68;4.60;;;18.80;44.20;;;;;;5023674;28;21615;-63
2021/01/16 11:19:44;;;;;;;6.40;4.30;;;18.80;44.20;;;;;;5007178;28;20056;-65
2021/01/16 11:22:10;;;;;;;8.80;4.72;;;18.80;44.20;;;;;;5025810;28;20080;-66
2021/01/16 11:24:54;;;;;;;10.20;4.97;;;18.80;44.30;;;;;;5027610;28;20034;-63
2021/01/16 11:27:20;;;;;;;10.85;5.32;;;18.80;44.30;;;;;;5028359;28;20025;-64
2021/01/16 11:29:47;;;;;;;7.50;4.80;;;18.80;44.30;;;;;;5028655;28;20029;-64
2021/01/16 11:32:19;;;;;;;8.07;4.90;;;18.80;44.20;;;;;;5028790;28;20060;-64
2021/01/16 11:35:09;;;;;;;7.63;4.57;;;18.80;44.30;;;;;;5028560;28;20032;-63
2021/01/16 11:37:45;;;;;;;9.30;4.82;;;18.80;44.30;;;;;;5027746;28;20029;-63
2021/01/16 11:40:30;;;;;;;8.18;4.88;;;18.80;44.30;;;;;;5010674;28;20108;-65
2021/01/16 11:43:00;;;;;;;;;;;18.80;44.30;;;;;;5028736;28;20037;-64
2021/01/16 11:45:25;;;;;;;9.05;5.07;;;18.80;44.30;;;;;;5028234;28;19951;-64
2021/01/16 11:47:53;;;;;;;7.10;3.88;;;18.80;44.40;;;;;;5028466;28;20069;-64
2021/01/16 11:50:19;;;;;;;7.78;4.40;;;18.80;44.40;;;;;;5027836;28;20553;-63
2021/01/16 11:52:45;;;;;;;11.70;4.15;;;18.80;44.50;;;;;;5010772;28;20029;-66
2021/01/16 11:55:11;;;;;;;5.50;4.13;;;18.80;44.40;;;;;;5028307;28;20040;-66
2021/01/16 11:57:37;;;;;;;9.50;4.63;;;18.80;44.40;;;;;;5028080;28;20053;-66
2021/01/16 12:00:04;;;;;;;9.77;4.20;;;18.80;44.40;;;;;;5028245;28;20534;-66
2021/01/16 12:02:29;;;;;;;5.88;4.43;;;18.80;44.40;;;;;;5028320;28;20697;-66
2021/01/16 12:04:55;;;;;;;6.75;4.20;;;18.80;44.40;;;;;;5010202;28;20033;-66
2021/01/16 12:07:21;;;;;;;7.55;4.47;;;18.80;44.40;;;;;;5009821;28;21562;-67
2021/01/16 12:09:47;;;;;;;6.15;4.53;;;18.80;44.40;;;;;;5027739;28;20026;-67
2021/01/16 12:12:12;;;;;;;7.25;4.38;;;18.80;44.40;;;;;;5027822;28;20056;-68
2021/01/16 12:14:38;;;;;;;7.50;4.45;;;18.80;44.40;;;;;;5027658;28;20087;-64
2021/01/16 12:17:05;;;;;;;8.00;4.60;;;18.80;44.30;;;;;;5027004;28;20040;-64
2021/01/16 12:19:32;;;;;;;6.53;4.30;;;18.80;44.40;;;;;;5028410;28;20037;-64
2021/01/16 12:21:59;;;;;;;7.68;4.63;;;18.80;44.30;;;;;;5027762;28;20075;-63
2021/01/16 12:24:25;;;;;;;5.65;4.30;;;18.80;44.40;;;;;;5009791;28;20033;-64
2021/01/16 12:26:50;;;;;;;5.80;4.63;;;18.70;44.30;;;;;;5009565;28;20052;-63
2021/01/16 12:29:23;;;;;;;5.20;3.65;;;18.70;44.30;;;;;;5027735;28;20564;-63
2021/01/16 12:32:09;;;;;;;7.78;3.67;;;18.70;44.40;;;;;;5009685;28;20033;-66
2021/01/16 12:34:44;;;;;;;6.03;4.03;;;18.70;44.40;;;;;;5027403;28;20119;-64
2021/01/16 12:37:10;;;;;;;6.75;4.18;;;18.70;44.40;;;;;;5026305;28;20033;-66
2021/01/16 12:39:35;;;;;;;6.47;3.72;;;18.70;44.40;;;;;;5010087;28;20029;-64
2021/01/16 12:42:01;;;;;;;5.88;4.13;;;18.70;44.50;;;;;;5010409;28;20573;-64
2021/01/16 12:44:26;;;;;;;6.70;4.05;;;18.70;44.50;;;;;;5026863;28;20629;-67
2021/01/16 12:46:52;;;;;;;7.63;4.30;;;18.70;44.50;;;;;;5026682;28;20032;-62
2021/01/16 12:49:19;;;;;;;12.07;4.80;;;18.70;44.50;;;;;;5009671;28;20087;-66
2021/01/16 12:51:46;;;;;;;11.85;5.70;;;18.70;44.50;;;;;;5026860;28;20412;-64
2021/01/16 12:54:16;;;;;;;13.45;7.90;;;18.80;44.50;;;;;;5009219;28;20045;-65